ONT weather

Ontario International Airport
Ontario, California, United States

Public forecast

Using degrees Fahrenheit for public forecast. Weather courtesy of forecast.io.

Current aviation weather report (METAR) for Ontario International Airport

Retrieved 2020/04/06 06:53 UTC (37 minutes ago):

KONT 060653Z 26008KT 10SM SCT036 BKN046 BKN060 12/09 A2990 RMK AO2 SLP120 T01220089

Aviation forecast (TAF) for Ontario International Airport

Retrieved 2020/04/06 06:22 UTC (1 hour ago):

TAF KONT 060520Z 0606/0712 26018KT P6SM VCSH SCT020 BKN040 FM060900 26015G23KT 6SM -SHRA BKN020 OVC040 FM061600 25010KT 3SM RA VCTS BKN015CB FM062200 25010KT 5SM -SHRA BKN018 FM070400 VRB05KT 6SM BR VCSH BKN022